Gosnells, Australia
Current Conditions -  °F | °C
As of 8:30 AM on Saturday 20 Dec 2014 (Local Time) from YPJT Reporting Station
Clear Clear  
Wind Chill: 77°   Ceiling: Unl
Heat Index: 79°   Visibility: 6mi
Dew Point: 61°   Wind: 14mph
Humidity: 57%   Direction: 230°SW
Pressure: 29.77"   Gusts: NA
Location:  32.07°S, 116°E
Report Text: YPJT 200030Z AUTO 23012KT 9999 // NCD 25/16 Q1008
Loading
Personal Weather Stations






























Interactive Weather Map New forecast layout! Learn more

10-Day Weather Forecast

Advertisements
Track Severe Weather on mobile